UAL1341 KPHX-KLAX
Flight info
| Callsign | UAL1341 |
|---|---|
| Flight time | 1h 2m |
| Altitude | 30000 |
| Route | KEENS3 WLVRN ESTWD HLYWD1 |
| Aircraft | B753/M-SDE2E3FGHIJ3J4J7RWXY/LB1 |
Departure
| Time | 2026-04-25 02:38 |
|---|---|
| Airport | Phoenix Sky Harbor International Airport (KPHX) |
Arrival
| Time | 2026-04-25 03:41 |
|---|---|
| Airport | Los Angeles International Airport (KLAX) |
| Time | Latitude | Longitude | Altitude | Speed | Heading |
|---|---|---|---|---|---|
| 2026-04-25 02:17 | 33.43737 | -112.00811 | 1136 ft | 0 kts | 270° |
| 2026-04-25 02:26 | 33.43737 | -112.00810 | 1135 ft | 0 kts | 270° |
| 2026-04-25 02:27 | 33.43737 | -112.00808 | 1135 ft | 2 kts | 270° |
| 2026-04-25 02:27 | 33.43737 | -112.00790 | 1135 ft | 2 kts | 270° |
| 2026-04-25 02:27 | 33.43737 | -112.00773 | 1135 ft | 2 kts | 270° |
| 2026-04-25 02:28 | 33.43735 | -112.00754 | 1135 ft | 2 kts | 297° |
| 2026-04-25 02:28 | 33.43726 | -112.00741 | 1135 ft | 2 kts | 323° |
| 2026-04-25 02:28 | 33.43712 | -112.00734 | 1135 ft | 2 kts | 351° |
| 2026-04-25 02:28 | 33.43705 | -112.00733 | 1135 ft | 1 kts | 3° |
| 2026-04-25 02:29 | 33.43702 | -112.00733 | 1135 ft | 0 kts | 0° |
| 2026-04-25 02:31 | 33.43705 | -112.00733 | 1135 ft | 1 kts | 0° |
| 2026-04-25 02:31 | 33.43721 | -112.00733 | 1135 ft | 2 kts | 0° |
| 2026-04-25 02:31 | 33.43741 | -112.00733 | 1135 ft | 2 kts | 0° |
| 2026-04-25 02:31 | 33.43747 | -112.00733 | 1135 ft | 1 kts | 0° |
| 2026-04-25 02:32 | 33.43756 | -112.00733 | 1136 ft | 1 kts | 360° |
| 2026-04-25 02:32 | 33.43811 | -112.00735 | 1137 ft | 15 kts | 358° |
| 2026-04-25 02:32 | 33.43897 | -112.00694 | 1138 ft | 12 kts | 69° |
| 2026-04-25 02:32 | 33.43903 | -112.00584 | 1138 ft | 17 kts | 91° |
| 2026-04-25 02:33 | 33.43903 | -112.00394 | 1138 ft | 23 kts | 90° |
| 2026-04-25 02:33 | 33.43905 | -112.00214 | 1139 ft | 20 kts | 89° |
| 2026-04-25 02:33 | 33.43904 | -112.00063 | 1139 ft | 16 kts | 91° |
| 2026-04-25 02:33 | 33.43902 | -111.99941 | 1140 ft | 12 kts | 91° |
| 2026-04-25 02:34 | 33.43901 | -111.99860 | 1142 ft | 8 kts | 90° |
| 2026-04-25 02:34 | 33.43901 | -111.99747 | 1143 ft | 19 kts | 89° |
| 2026-04-25 02:34 | 33.43902 | -111.99568 | 1143 ft | 20 kts | 90° |
| 2026-04-25 02:34 | 33.43903 | -111.99410 | 1143 ft | 17 kts | 89° |
| 2026-04-25 02:35 | 33.43900 | -111.99274 | 1143 ft | 14 kts | 102° |
| 2026-04-25 02:35 | 33.43837 | -111.99228 | 1141 ft | 10 kts | 178° |
| 2026-04-25 02:35 | 33.43773 | -111.99227 | 1140 ft | 8 kts | 181° |
| 2026-04-25 02:35 | 33.43719 | -111.99229 | 1139 ft | 9 kts | 181° |
| 2026-04-25 02:36 | 33.43602 | -111.99231 | 1137 ft | 20 kts | 180° |
| 2026-04-25 02:36 | 33.43464 | -111.99232 | 1135 ft | 18 kts | 181° |
| 2026-04-25 02:36 | 33.43342 | -111.99232 | 1134 ft | 16 kts | 180° |
| 2026-04-25 02:36 | 33.43242 | -111.99239 | 1134 ft | 12 kts | 199° |
| 2026-04-25 02:37 | 33.43175 | -111.99301 | 1135 ft | 17 kts | 225° |
| 2026-04-25 02:37 | 33.43103 | -111.99459 | 1133 ft | 28 kts | 270° |
| 2026-04-25 02:37 | 33.43103 | -111.99932 | 1132 ft | 90 kts | 270° |
| 2026-04-25 02:37 | 33.43106 | -112.00957 | 1135 ft | 155 kts | 269° |
| 2026-04-25 02:38 | 33.43112 | -112.02396 | 1470 ft | 184 kts | 269° |
| 2026-04-25 02:38 | 33.43100 | -112.03941 | 2303 ft | 192 kts | 268° |
| 2026-04-25 02:38 | 33.43070 | -112.05514 | 3003 ft | 198 kts | 267° |
| 2026-04-25 02:38 | 33.42832 | -112.07192 | 3528 ft | 214 kts | 250° |
| 2026-04-25 02:39 | 33.42316 | -112.08928 | 4195 ft | 226 kts | 250° |
| 2026-04-25 02:39 | 33.41779 | -112.10752 | 4768 ft | 245 kts | 250° |
| 2026-04-25 02:39 | 33.41179 | -112.12735 | 5380 ft | 262 kts | 250° |
| 2026-04-25 02:39 | 33.40552 | -112.14784 | 6200 ft | 268 kts | 250° |
| 2026-04-25 02:40 | 33.39903 | -112.16899 | 7076 ft | 273 kts | 249° |
| 2026-04-25 02:40 | 33.39313 | -112.19032 | 7924 ft | 278 kts | 260° |
| 2026-04-25 02:40 | 33.39355 | -112.21356 | 8738 ft | 285 kts | 278° |
| 2026-04-25 02:40 | 33.39695 | -112.23688 | 9915 ft | 288 kts | 277° |
| 2026-04-25 02:41 | 33.40015 | -112.25993 | 11162 ft | 288 kts | 277° |
| 2026-04-25 02:41 | 33.40350 | -112.28313 | 12453 ft | 285 kts | 277° |
| 2026-04-25 02:41 | 33.40680 | -112.30582 | 13734 ft | 281 kts | 277° |
| 2026-04-25 02:41 | 33.41008 | -112.32810 | 15013 ft | 274 kts | 277° |
| 2026-04-25 02:42 | 33.41330 | -112.34988 | 16294 ft | 266 kts | 277° |
| 2026-04-25 02:42 | 33.41651 | -112.37183 | 17045 ft | 276 kts | 277° |
| 2026-04-25 02:42 | 33.41989 | -112.39488 | 17768 ft | 286 kts | 277° |
| 2026-04-25 02:42 | 33.42340 | -112.41873 | 18151 ft | 309 kts | 277° |
| 2026-04-25 02:43 | 33.42733 | -112.44565 | 17914 ft | 348 kts | 278° |
| 2026-04-25 02:43 | 33.43174 | -112.47556 | 17910 ft | 368 kts | 278° |
| 2026-04-25 02:43 | 33.43618 | -112.50552 | 18104 ft | 364 kts | 278° |
| 2026-04-25 02:43 | 33.44046 | -112.53442 | 19295 ft | 352 kts | 278° |
| 2026-04-25 02:44 | 33.44466 | -112.56304 | 20234 ft | 349 kts | 278° |
| 2026-04-25 02:44 | 33.44871 | -112.59184 | 20806 ft | 354 kts | 275° |
| 2026-04-25 02:44 | 33.45009 | -112.62073 | 21512 ft | 354 kts | 270° |
| 2026-04-25 02:44 | 33.45056 | -112.65028 | 22243 ft | 355 kts | 270° |
| 2026-04-25 02:45 | 33.45107 | -112.67996 | 22831 ft | 359 kts | 269° |
| 2026-04-25 02:45 | 33.45152 | -112.70977 | 23580 ft | 359 kts | 269° |
| 2026-04-25 02:45 | 33.45193 | -112.73946 | 24117 ft | 364 kts | 270° |
| 2026-04-25 02:45 | 33.45238 | -112.76975 | 24835 ft | 364 kts | 271° |
| 2026-04-25 02:46 | 33.45562 | -112.79996 | 25412 ft | 369 kts | 281° |
| 2026-04-25 02:46 | 33.46381 | -112.82920 | 25909 ft | 376 kts | 288° |
| 2026-04-25 02:46 | 33.47382 | -112.85818 | 26504 ft | 377 kts | 288° |
| 2026-04-25 02:46 | 33.48365 | -112.88682 | 27060 ft | 379 kts | 288° |
| 2026-04-25 02:47 | 33.49381 | -112.91618 | 27543 ft | 382 kts | 288° |
| 2026-04-25 02:47 | 33.50400 | -112.94550 | 28107 ft | 384 kts | 288° |
| 2026-04-25 02:47 | 33.51423 | -112.97491 | 28656 ft | 384 kts | 288° |
| 2026-04-25 02:47 | 33.52450 | -113.00430 | 29353 ft | 381 kts | 288° |
| 2026-04-25 02:48 | 33.53456 | -113.03317 | 29848 ft | 378 kts | 288° |
| 2026-04-25 02:48 | 33.55471 | -113.09105 | 29819 ft | 375 kts | 288° |
| 2026-04-25 02:49 | 33.57475 | -113.14867 | 29813 ft | 375 kts | 288° |
| 2026-04-25 02:49 | 33.59486 | -113.20661 | 29819 ft | 378 kts | 288° |
| 2026-04-25 02:50 | 33.61488 | -113.26434 | 29814 ft | 375 kts | 288° |
| 2026-04-25 02:50 | 33.63491 | -113.32226 | 29825 ft | 377 kts | 288° |
| 2026-04-25 02:51 | 33.65496 | -113.38030 | 29831 ft | 379 kts | 288° |
| 2026-04-25 02:51 | 33.67495 | -113.43826 | 29830 ft | 377 kts | 288° |
| 2026-04-25 02:52 | 33.69497 | -113.49643 | 29832 ft | 379 kts | 288° |
| 2026-04-25 02:52 | 33.71518 | -113.55523 | 29829 ft | 380 kts | 288° |
| 2026-04-25 02:53 | 33.73527 | -113.61380 | 29818 ft | 379 kts | 288° |
| 2026-04-25 02:53 | 33.75527 | -113.67229 | 29820 ft | 381 kts | 287° |
| 2026-04-25 02:54 | 33.77526 | -113.73077 | 29804 ft | 378 kts | 288° |
| 2026-04-25 02:54 | 33.79517 | -113.78913 | 29801 ft | 378 kts | 287° |
| 2026-04-25 02:55 | 33.81512 | -113.84771 | 29800 ft | 379 kts | 288° |
| 2026-04-25 02:55 | 33.83495 | -113.90601 | 29809 ft | 378 kts | 287° |
| 2026-04-25 02:56 | 33.85495 | -113.96495 | 29786 ft | 381 kts | 287° |
| 2026-04-25 02:56 | 33.87492 | -114.02384 | 29797 ft | 381 kts | 287° |
| 2026-04-25 02:57 | 33.89483 | -114.08271 | 29781 ft | 379 kts | 287° |
| 2026-04-25 02:57 | 33.90978 | -114.14273 | 29775 ft | 376 kts | 278° |
| 2026-04-25 02:58 | 33.92052 | -114.20455 | 29764 ft | 377 kts | 279° |
| 2026-04-25 02:58 | 33.93108 | -114.26613 | 29748 ft | 375 kts | 279° |
| 2026-04-25 02:59 | 33.94152 | -114.32752 | 29754 ft | 377 kts | 278° |
| 2026-04-25 02:59 | 33.95190 | -114.38898 | 29745 ft | 377 kts | 279° |
| 2026-04-25 03:00 | 33.96233 | -114.45090 | 29733 ft | 376 kts | 279° |
| 2026-04-25 03:00 | 33.97262 | -114.51228 | 29740 ft | 377 kts | 278° |
| 2026-04-25 03:01 | 33.98294 | -114.57410 | 29737 ft | 378 kts | 279° |
| 2026-04-25 03:01 | 33.99328 | -114.63621 | 29734 ft | 378 kts | 279° |
| 2026-04-25 03:02 | 34.00362 | -114.69851 | 29746 ft | 378 kts | 278° |
| 2026-04-25 03:02 | 34.01383 | -114.76019 | 29752 ft | 376 kts | 278° |
| 2026-04-25 03:03 | 34.02397 | -114.82167 | 29766 ft | 376 kts | 278° |
| 2026-04-25 03:03 | 34.03413 | -114.88345 | 29772 ft | 374 kts | 278° |
| 2026-04-25 03:04 | 34.04420 | -114.94495 | 29775 ft | 375 kts | 278° |
| 2026-04-25 03:04 | 34.05426 | -115.00650 | 29776 ft | 374 kts | 278° |
| 2026-04-25 03:05 | 34.06927 | -115.09862 | 29777 ft | 375 kts | 278° |
| 2026-04-25 03:05 | 34.07932 | -115.16045 | 29676 ft | 379 kts | 278° |
| 2026-04-25 03:06 | 34.08931 | -115.22216 | 29677 ft | 372 kts | 278° |
| 2026-04-25 03:06 | 34.09912 | -115.28291 | 29666 ft | 366 kts | 279° |
| 2026-04-25 03:07 | 34.10871 | -115.34255 | 29677 ft | 362 kts | 278° |
| 2026-04-25 03:07 | 34.11823 | -115.40198 | 29665 ft | 363 kts | 278° |
| 2026-04-25 03:08 | 34.12775 | -115.46158 | 29681 ft | 364 kts | 278° |
| 2026-04-25 03:08 | 34.13729 | -115.52142 | 29802 ft | 362 kts | 278° |
| 2026-04-25 03:09 | 34.14674 | -115.58094 | 29797 ft | 363 kts | 279° |
| 2026-04-25 03:09 | 34.15620 | -115.64077 | 29817 ft | 363 kts | 278° |
| 2026-04-25 03:10 | 34.16158 | -115.70098 | 29855 ft | 361 kts | 265° |
| 2026-04-25 03:10 | 34.15641 | -115.76164 | 29848 ft | 363 kts | 264° |
| 2026-04-25 03:11 | 34.15086 | -115.82207 | 29857 ft | 365 kts | 264° |
| 2026-04-25 03:11 | 34.14508 | -115.88288 | 29862 ft | 366 kts | 264° |
| 2026-04-25 03:12 | 34.13919 | -115.94391 | 29877 ft | 367 kts | 263° |
| 2026-04-25 03:12 | 34.13902 | -116.00535 | 29898 ft | 369 kts | 279° |
| 2026-04-25 03:13 | 34.15934 | -116.06223 | 29884 ft | 381 kts | 304° |
| 2026-04-25 03:13 | 34.17955 | -116.08305 | 30001 ft | 387 kts | 322° |
| 2026-04-25 03:13 | 34.20524 | -116.09521 | 29910 ft | 410 kts | 340° |
| 2026-04-25 03:14 | 34.23400 | -116.09699 | 29918 ft | 430 kts | 358° |
| 2026-04-25 03:14 | 34.26394 | -116.08984 | 29889 ft | 437 kts | 1° |
| 2026-04-25 03:14 | 34.29371 | -116.08592 | 29883 ft | 426 kts | 351° |
| 2026-04-25 03:14 | 34.32285 | -116.08830 | 29883 ft | 414 kts | 341° |
| 2026-04-25 03:15 | 34.35016 | -116.09749 | 29884 ft | 396 kts | 325° |
| 2026-04-25 03:15 | 34.37228 | -116.11515 | 29901 ft | 376 kts | 307° |
| 2026-04-25 03:15 | 34.38754 | -116.14013 | 29914 ft | 361 kts | 289° |
| 2026-04-25 03:15 | 34.39505 | -116.16844 | 29904 ft | 355 kts | 278° |
| 2026-04-25 03:16 | 34.39715 | -116.19817 | 29890 ft | 354 kts | 267° |
| 2026-04-25 03:16 | 34.39393 | -116.22749 | 29895 ft | 355 kts | 257° |
| 2026-04-25 03:16 | 34.38546 | -116.25567 | 29907 ft | 358 kts | 246° |
| 2026-04-25 03:16 | 34.37199 | -116.28145 | 29903 ft | 364 kts | 236° |
| 2026-04-25 03:17 | 34.33448 | -116.32401 | 29899 ft | 374 kts | 225° |
| 2026-04-25 03:17 | 34.29402 | -116.36395 | 29259 ft | 391 kts | 226° |
| 2026-04-25 03:18 | 34.27273 | -116.38544 | 28680 ft | 405 kts | 226° |
| 2026-04-25 03:18 | 34.25111 | -116.40733 | 27994 ft | 404 kts | 226° |
| 2026-04-25 03:18 | 34.22999 | -116.42863 | 27396 ft | 384 kts | 226° |
| 2026-04-25 03:18 | 34.20989 | -116.44900 | 26815 ft | 373 kts | 227° |
| 2026-04-25 03:19 | 34.19011 | -116.46920 | 26303 ft | 381 kts | 226° |
| 2026-04-25 03:19 | 34.17017 | -116.48948 | 25614 ft | 368 kts | 227° |
| 2026-04-25 03:19 | 34.15081 | -116.50916 | 25090 ft | 366 kts | 227° |
| 2026-04-25 03:19 | 34.13133 | -116.52906 | 24541 ft | 372 kts | 226° |
| 2026-04-25 03:20 | 34.11136 | -116.54953 | 23971 ft | 369 kts | 229° |
| 2026-04-25 03:20 | 34.09495 | -116.57156 | 23897 ft | 344 kts | 241° |
| 2026-04-25 03:20 | 34.08420 | -116.59689 | 23938 ft | 341 kts | 253° |
| 2026-04-25 03:20 | 34.07716 | -116.62474 | 23698 ft | 357 kts | 258° |
| 2026-04-25 03:21 | 34.07173 | -116.65413 | 23240 ft | 355 kts | 260° |
| 2026-04-25 03:21 | 34.06735 | -116.68278 | 22787 ft | 344 kts | 261° |
| 2026-04-25 03:21 | 34.06364 | -116.71069 | 22341 ft | 337 kts | 262° |
| 2026-04-25 03:21 | 34.06032 | -116.73863 | 21893 ft | 333 kts | 263° |
| 2026-04-25 03:22 | 34.05735 | -116.76577 | 21448 ft | 327 kts | 263° |
| 2026-04-25 03:22 | 34.05455 | -116.79280 | 21007 ft | 323 kts | 264° |
| 2026-04-25 03:22 | 34.05186 | -116.81951 | 20576 ft | 322 kts | 264° |
| 2026-04-25 03:22 | 34.04926 | -116.84616 | 20145 ft | 322 kts | 264° |
| 2026-04-25 03:23 | 34.04667 | -116.87302 | 19711 ft | 321 kts | 264° |
| 2026-04-25 03:23 | 34.04383 | -116.89943 | 19272 ft | 319 kts | 262° |
| 2026-04-25 03:23 | 34.04034 | -116.92568 | 18956 ft | 314 kts | 262° |
| 2026-04-25 03:23 | 34.03695 | -116.95183 | 18435 ft | 323 kts | 262° |
| 2026-04-25 03:24 | 34.03356 | -116.97781 | 17705 ft | 315 kts | 262° |
| 2026-04-25 03:24 | 34.03016 | -117.00397 | 17046 ft | 311 kts | 262° |
| 2026-04-25 03:24 | 34.02690 | -117.02908 | 16949 ft | 305 kts | 262° |
| 2026-04-25 03:24 | 34.02383 | -117.05474 | 16953 ft | 311 kts | 263° |
| 2026-04-25 03:25 | 34.02079 | -117.08060 | 16861 ft | 319 kts | 262° |
| 2026-04-25 03:25 | 34.01763 | -117.10719 | 16344 ft | 317 kts | 262° |
| 2026-04-25 03:25 | 34.01457 | -117.13297 | 15880 ft | 310 kts | 263° |
| 2026-04-25 03:25 | 34.01152 | -117.15863 | 15422 ft | 308 kts | 262° |
| 2026-04-25 03:26 | 34.00849 | -117.18407 | 15042 ft | 305 kts | 263° |
| 2026-04-25 03:26 | 34.00548 | -117.20926 | 15025 ft | 303 kts | 263° |
| 2026-04-25 03:26 | 34.00243 | -117.23486 | 14935 ft | 317 kts | 262° |
| 2026-04-25 03:26 | 33.99931 | -117.26118 | 14587 ft | 312 kts | 263° |
| 2026-04-25 03:27 | 33.99633 | -117.28647 | 14269 ft | 302 kts | 262° |
| 2026-04-25 03:27 | 33.99341 | -117.31132 | 13973 ft | 298 kts | 263° |
| 2026-04-25 03:27 | 33.99051 | -117.33592 | 13689 ft | 301 kts | 262° |
| 2026-04-25 03:27 | 33.98756 | -117.36086 | 13401 ft | 301 kts | 262° |
| 2026-04-25 03:28 | 33.98460 | -117.38583 | 13113 ft | 299 kts | 262° |
| 2026-04-25 03:28 | 33.98169 | -117.41044 | 12833 ft | 299 kts | 262° |
| 2026-04-25 03:28 | 33.97874 | -117.43522 | 12543 ft | 300 kts | 262° |
| 2026-04-25 03:28 | 33.97579 | -117.45998 | 12254 ft | 301 kts | 262° |
| 2026-04-25 03:29 | 33.97368 | -117.48503 | 12004 ft | 298 kts | 272° |
| 2026-04-25 03:29 | 33.97667 | -117.50987 | 11730 ft | 301 kts | 281° |
| 2026-04-25 03:29 | 33.98093 | -117.53431 | 11491 ft | 300 kts | 281° |
| 2026-04-25 03:29 | 33.98515 | -117.55898 | 11248 ft | 301 kts | 281° |
| 2026-04-25 03:30 | 33.98950 | -117.58388 | 11004 ft | 302 kts | 281° |
| 2026-04-25 03:30 | 33.99382 | -117.60854 | 10761 ft | 301 kts | 281° |
| 2026-04-25 03:30 | 33.99810 | -117.63287 | 10517 ft | 300 kts | 281° |
| 2026-04-25 03:30 | 34.00243 | -117.65746 | 10272 ft | 299 kts | 281° |
| 2026-04-25 03:31 | 34.00564 | -117.68186 | 9965 ft | 281 kts | 268° |
| 2026-04-25 03:31 | 34.00412 | -117.70461 | 9756 ft | 270 kts | 264° |
| 2026-04-25 03:31 | 34.00214 | -117.72751 | 9556 ft | 283 kts | 264° |
| 2026-04-25 03:31 | 34.00003 | -117.75096 | 9177 ft | 281 kts | 263° |
| 2026-04-25 03:32 | 33.99786 | -117.77408 | 8801 ft | 274 kts | 263° |
| 2026-04-25 03:32 | 33.99568 | -117.79681 | 8427 ft | 270 kts | 263° |
| 2026-04-25 03:32 | 33.99352 | -117.81913 | 8056 ft | 267 kts | 263° |
| 2026-04-25 03:32 | 33.99142 | -117.84095 | 7681 ft | 263 kts | 263° |
| 2026-04-25 03:33 | 33.98933 | -117.86260 | 7239 ft | 252 kts | 263° |
| 2026-04-25 03:33 | 33.98735 | -117.88288 | 6967 ft | 240 kts | 264° |
| 2026-04-25 03:33 | 33.98538 | -117.90315 | 7043 ft | 248 kts | 263° |
| 2026-04-25 03:33 | 33.98331 | -117.92429 | 6782 ft | 257 kts | 263° |
| 2026-04-25 03:34 | 33.98126 | -117.94508 | 6534 ft | 247 kts | 263° |
| 2026-04-25 03:34 | 33.97922 | -117.96577 | 6306 ft | 248 kts | 264° |
| 2026-04-25 03:34 | 33.97721 | -117.98617 | 6064 ft | 248 kts | 263° |
| 2026-04-25 03:34 | 33.97516 | -118.00694 | 5816 ft | 248 kts | 263° |
| 2026-04-25 03:35 | 33.97310 | -118.02763 | 5579 ft | 247 kts | 263° |
| 2026-04-25 03:35 | 33.97109 | -118.04793 | 5458 ft | 243 kts | 263° |
| 2026-04-25 03:35 | 33.96907 | -118.06822 | 5504 ft | 249 kts | 263° |
| 2026-04-25 03:35 | 33.96701 | -118.08889 | 5473 ft | 247 kts | 263° |
| 2026-04-25 03:36 | 33.96497 | -118.10940 | 5464 ft | 246 kts | 263° |
| 2026-04-25 03:36 | 33.96293 | -118.12981 | 5474 ft | 246 kts | 263° |
| 2026-04-25 03:36 | 33.96088 | -118.15033 | 5479 ft | 247 kts | 264° |
| 2026-04-25 03:36 | 33.96117 | -118.17090 | 5424 ft | 248 kts | 278° |
| 2026-04-25 03:37 | 33.96444 | -118.19215 | 4907 ft | 254 kts | 281° |
| 2026-04-25 03:37 | 33.96793 | -118.21256 | 4650 ft | 251 kts | 281° |
| 2026-04-25 03:37 | 33.97149 | -118.23332 | 4162 ft | 256 kts | 281° |
| 2026-04-25 03:37 | 33.97218 | -118.25483 | 3371 ft | 266 kts | 257° |
| 2026-04-25 03:38 | 33.96716 | -118.27629 | 2442 ft | 262 kts | 251° |
| 2026-04-25 03:38 | 33.96285 | -118.29646 | 1674 ft | 241 kts | 263° |
| 2026-04-25 03:38 | 33.96120 | -118.31518 | 1195 ft | 213 kts | 261° |
| 2026-04-25 03:38 | 33.95942 | -118.33176 | 947 ft | 185 kts | 261° |
| 2026-04-25 03:39 | 33.95792 | -118.34596 | 795 ft | 157 kts | 262° |
| 2026-04-25 03:39 | 33.95676 | -118.35807 | 657 ft | 138 kts | 261° |
| 2026-04-25 03:39 | 33.95542 | -118.36970 | 562 ft | 145 kts | 263° |
| 2026-04-25 03:39 | 33.95417 | -118.38171 | 405 ft | 144 kts | 261° |
| 2026-04-25 03:40 | 33.95300 | -118.39346 | 278 ft | 138 kts | 261° |
| 2026-04-25 03:40 | 33.95180 | -118.40501 | 128 ft | 137 kts | 262° |
| 2026-04-25 03:40 | 33.95083 | -118.41444 | 126 ft | 84 kts | 263° |
| 2026-04-25 03:40 | 33.95024 | -118.41967 | 123 ft | 52 kts | 259° |
| 2026-04-25 03:41 | 33.94971 | -118.42142 | 122 ft | 8 kts | 238° |
| 2026-04-25 03:41 | 33.94944 | -118.42189 | 122 ft | 5 kts | 234° |
| 2026-04-25 03:41 | 33.94920 | -118.42225 | 122 ft | 5 kts | 229° |
| 2026-04-25 03:41 | 33.94861 | -118.42280 | 121 ft | 16 kts | 199° |
| 2026-04-25 03:42 | 33.94707 | -118.42269 | 119 ft | 17 kts | 152° |
| 2026-04-25 03:42 | 33.94692 | -118.42147 | 120 ft | 13 kts | 85° |
| 2026-04-25 03:42 | 33.94703 | -118.42038 | 122 ft | 17 kts | 82° |
| 2026-04-25 03:42 | 33.94704 | -118.41847 | 122 ft | 25 kts | 125° |
| 2026-04-25 03:43 | 33.94551 | -118.41805 | 121 ft | 22 kts | 176° |
| 2026-04-25 03:43 | 33.94403 | -118.41785 | 119 ft | 20 kts | 172° |
| 2026-04-25 03:43 | 33.94269 | -118.41764 | 119 ft | 18 kts | 174° |
| 2026-04-25 03:43 | 33.94142 | -118.41745 | 119 ft | 18 kts | 172° |
| 2026-04-25 03:44 | 33.94022 | -118.41727 | 121 ft | 16 kts | 172° |
| 2026-04-25 03:44 | 33.93898 | -118.41708 | 123 ft | 18 kts | 173° |
| 2026-04-25 03:44 | 33.93785 | -118.41692 | 125 ft | 15 kts | 173° |
| 2026-04-25 03:44 | 33.93716 | -118.41627 | 126 ft | 12 kts | 97° |
| 2026-04-25 03:45 | 33.93720 | -118.41562 | 127 ft | 6 kts | 84° |
| 2026-04-25 03:45 | 33.93731 | -118.41450 | 127 ft | 23 kts | 83° |
| 2026-04-25 03:45 | 33.93754 | -118.41222 | 129 ft | 28 kts | 83° |
| 2026-04-25 03:45 | 33.93777 | -118.40994 | 129 ft | 25 kts | 83° |
| 2026-04-25 03:46 | 33.93791 | -118.40854 | 129 ft | 9 kts | 83° |
| 2026-04-25 03:46 | 33.93803 | -118.40748 | 129 ft | 18 kts | 82° |
| 2026-04-25 03:46 | 33.93822 | -118.40560 | 127 ft | 24 kts | 84° |
| 2026-04-25 03:46 | 33.93843 | -118.40362 | 123 ft | 22 kts | 83° |
| 2026-04-25 03:47 | 33.93858 | -118.40212 | 122 ft | 12 kts | 83° |
| 2026-04-25 03:47 | 33.93862 | -118.40179 | 122 ft | 1 kts | 83° |
| 2026-04-25 03:47 | 33.93863 | -118.40167 | 122 ft | 0 kts | 83° |
| 2026-04-25 03:50 | 33.93863 | -118.40164 | 122 ft | 1 kts | 83° |
| 2026-04-25 03:50 | 33.93867 | -118.40124 | 121 ft | 9 kts | 83° |
| 2026-04-25 03:50 | 33.93910 | -118.40057 | 120 ft | 13 kts | 4° |
| 2026-04-25 03:51 | 33.94029 | -118.40073 | 120 ft | 19 kts | 351° |
| 2026-04-25 03:51 | 33.94107 | -118.40073 | 119 ft | 5 kts | 41° |
| 2026-04-25 03:51 | 33.94116 | -118.40044 | 119 ft | 3 kts | 90° |
| 2026-04-25 03:51 | 33.94115 | -118.40028 | 119 ft | 0 kts | 94° |